createdAt,value
2018-05-24T00:00:57.808Z,74.85
2018-05-24T00:03:25.622Z,75.55
2018-05-24T00:05:53.441Z,75.80
2018-05-24T00:08:21.168Z,76.07
2018-05-24T00:10:48.912Z,75.57
2018-05-24T00:13:16.528Z,75.52
2018-05-24T00:15:44.315Z,75.17
2018-05-24T00:18:11.893Z,75.39
2018-05-24T00:20:39.574Z,75.08
2018-05-24T00:23:07.368Z,75.17
2018-05-24T00:25:35.421Z,75.31
2018-05-24T00:28:03.209Z,75.17
2018-05-24T00:30:31.024Z,75.30
2018-05-24T00:32:58.943Z,75.16
2018-05-24T00:35:26.674Z,75.86
2018-05-24T00:37:54.276Z,75.34
2018-05-24T00:40:22.404Z,75.57
2018-05-24T00:42:50.137Z,76.48
2018-05-24T00:45:17.850Z,76.75
2018-05-24T00:47:45.470Z,77.18
2018-05-24T00:50:13.095Z,77.10
2018-05-24T00:52:41.793Z,77.45
2018-05-24T00:55:21.354Z,77.50
2018-05-24T00:57:49.174Z,77.42
2018-05-24T01:00:17.140Z,77.60
2018-05-24T01:02:46.894Z,77.79
2018-05-24T01:05:14.495Z,78.04
2018-05-24T01:07:42.352Z,78.52
2018-05-24T01:10:10.162Z,78.68
2018-05-24T01:12:37.992Z,78.45
2018-05-24T01:15:05.683Z,78.61
2018-05-24T01:17:33.528Z,78.11
2018-05-24T01:20:01.154Z,78.24
2018-05-24T01:22:28.964Z,78.84
2018-05-24T01:24:56.585Z,79.20
2018-05-24T01:27:25.290Z,79.33
2018-05-24T01:29:52.947Z,79.65
2018-05-24T01:32:20.741Z,79.54
2018-05-24T01:34:48.329Z,79.54
2018-05-24T01:37:27.717Z,79.64
2018-05-24T01:39:55.304Z,79.92
2018-05-24T01:42:22.953Z,79.97
2018-05-24T01:44:50.655Z,80.25
2018-05-24T01:47:18.217Z,79.53
2018-05-24T01:49:46.013Z,80.08
2018-05-24T01:52:13.608Z,79.90
2018-05-24T01:54:41.345Z,79.83
2018-05-24T01:57:08.925Z,79.84
2018-05-24T01:59:36.782Z,80.32
2018-05-24T02:02:04.449Z,80.50
2018-05-24T02:04:32.096Z,80.56
2018-05-24T02:06:59.710Z,80.93
2018-05-24T02:09:27.430Z,81.17
2018-05-24T02:11:55.185Z,81.27
2018-05-24T02:14:22.991Z,81.58
2018-05-24T02:16:50.636Z,81.67
2018-05-24T02:19:18.397Z,81.45
2018-05-24T02:21:45.984Z,81.54
2018-05-24T02:24:13.585Z,81.22
2018-05-24T02:26:41.168Z,81.56
2018-05-24T02:29:08.869Z,81.77
2018-05-24T02:31:36.452Z,81.78
2018-05-24T02:34:04.496Z,81.75
2018-05-24T02:36:32.157Z,81.76
2018-05-24T02:38:59.741Z,81.85
2018-05-24T02:41:27.362Z,81.16
2018-05-24T02:43:55.114Z,80.92
2018-05-24T02:46:22.704Z,81.17
2018-05-24T02:48:50.284Z,81.59
2018-05-24T02:51:17.941Z,81.75
2018-05-24T02:53:45.612Z,82.20
2018-05-24T02:56:13.190Z,82.52
2018-05-24T02:58:40.806Z,82.55
2018-05-24T03:01:08.537Z,82.77
2018-05-24T03:03:36.265Z,82.61
2018-05-24T03:06:03.862Z,82.43
2018-05-24T03:08:31.598Z,82.27
2018-05-24T03:10:59.180Z,82.04
2018-05-24T03:13:26.929Z,81.60
2018-05-24T03:15:54.706Z,81.51
2018-05-24T03:18:22.284Z,80.58
2018-05-24T03:20:50.081Z,80.50
2018-05-24T03:23:17.680Z,80.63
2018-05-24T03:25:45.429Z,80.23
2018-05-24T03:28:13.023Z,80.11
2018-05-24T03:30:40.789Z,80.29
2018-05-24T03:33:08.392Z,80.59
2018-05-24T03:35:36.244Z,80.02
2018-05-24T03:38:03.941Z,79.72
2018-05-24T03:40:31.536Z,80.09
2018-05-24T03:42:59.378Z,80.26
2018-05-24T03:45:26.973Z,80.35
2018-05-24T03:47:54.610Z,80.17
2018-05-24T03:50:22.216Z,80.42
2018-05-24T03:52:50.128Z,80.08
2018-05-24T03:55:17.821Z,79.16
2018-05-24T03:57:46.838Z,78.81
2018-05-24T04:00:27.007Z,78.38
2018-05-24T04:03:07.386Z,78.18
2018-05-24T04:05:35.438Z,78.30
2018-05-24T04:08:03.154Z,77.92
2018-05-24T04:10:31.715Z,77.64
2018-05-24T04:12:59.639Z,77.54
2018-05-24T04:15:27.481Z,77.50
2018-05-24T04:17:55.177Z,77.30
2018-05-24T04:20:22.986Z,76.80
2018-05-24T04:22:50.634Z,76.10
2018-05-24T04:25:18.455Z,76.23
2018-05-24T04:27:46.175Z,76.49
2018-05-24T04:30:13.922Z,76.72
2018-05-24T04:32:41.500Z,75.86
2018-05-24T04:35:09.092Z,74.41
2018-05-24T04:37:37.059Z,73.50
2018-05-24T04:40:05.491Z,73.57
2018-05-24T04:42:33.201Z,73.17
2018-05-24T04:45:01.768Z,73.01
2018-05-24T04:47:29.424Z,72.60
2018-05-24T04:49:57.057Z,73.17
2018-05-24T04:52:24.644Z,71.99
2018-05-24T04:54:52.280Z,71.53
2018-05-24T04:57:19.917Z,71.79
2018-05-24T04:59:47.505Z,71.89
2018-05-24T05:02:15.232Z,71.90
2018-05-24T05:04:42.855Z,71.19
2018-05-24T05:07:10.436Z,71.10
2018-05-24T05:09:38.025Z,70.39
2018-05-24T05:12:05.668Z,69.49
2018-05-24T05:14:33.589Z,69.40
2018-05-24T05:17:01.346Z,68.91
2018-05-24T05:19:29.080Z,68.25
2018-05-24T05:21:56.793Z,67.81
2018-05-24T05:24:24.574Z,67.83
2018-05-24T05:26:52.418Z,67.23
2018-05-24T05:29:20.000Z,67.09
2018-05-24T05:31:47.645Z,66.87
2018-05-24T05:34:15.224Z,66.45
2018-05-24T05:36:42.812Z,66.68
2018-05-24T05:39:10.398Z,66.41
2018-05-24T05:41:37.980Z,64.64
2018-05-24T05:44:05.745Z,63.01
2018-05-24T05:46:33.324Z,62.55
2018-05-24T05:49:00.944Z,61.10
2018-05-24T05:51:28.746Z,60.49
2018-05-24T05:53:56.516Z,59.93
2018-05-24T05:56:24.816Z,59.81
2018-05-24T05:58:52.396Z,59.93
2018-05-24T06:01:20.188Z,59.24
2018-05-24T06:03:47.969Z,57.77
2018-05-24T06:06:15.641Z,56.84
2018-05-24T06:08:43.311Z,57.02
2018-05-24T06:11:10.897Z,56.93
2018-05-24T06:13:38.497Z,56.93
2018-05-24T06:16:06.375Z,57.67
2018-05-24T06:18:33.960Z,58.54
2018-05-24T06:21:01.545Z,57.68
2018-05-24T06:23:29.436Z,58.30
2018-05-24T06:25:56.993Z,58.60
2018-05-24T06:28:24.885Z,57.22
2018-05-24T06:30:52.693Z,57.38
2018-05-24T06:33:20.311Z,56.54
2018-05-24T06:35:48.673Z,56.46
2018-05-24T06:38:16.548Z,56.49
2018-05-24T06:40:44.381Z,56.71
2018-05-24T06:43:12.221Z,57.19
2018-05-24T06:45:40.020Z,57.63
2018-05-24T06:48:07.618Z,58.35
2018-05-24T06:50:35.456Z,56.34
2018-05-24T06:53:03.044Z,55.99
2018-05-24T06:55:30.620Z,55.15
2018-05-24T06:57:58.411Z,54.43
2018-05-24T07:00:26.230Z,54.64
2018-05-24T07:02:53.825Z,53.34
2018-05-24T07:05:21.420Z,52.82
2018-05-24T07:07:48.988Z,51.38
2018-05-24T07:10:16.572Z,49.84
2018-05-24T07:12:44.223Z,50.39
2018-05-24T07:15:11.864Z,48.35
2018-05-24T07:17:39.588Z,47.89
2018-05-24T07:20:07.173Z,45.99
2018-05-24T07:22:34.764Z,44.19
2018-05-24T07:25:02.348Z,43.41
2018-05-24T07:27:29.945Z,43.32
2018-05-24T07:29:57.530Z,43.29
2018-05-24T07:32:25.177Z,42.29
2018-05-24T07:34:52.985Z,42.15
2018-05-24T07:37:20.575Z,41.74
2018-05-24T07:39:48.225Z,42.10
2018-05-24T07:42:15.741Z,43.34
2018-05-24T07:44:43.554Z,43.74
2018-05-24T07:47:11.130Z,43.35
2018-05-24T07:49:38.837Z,43.79
2018-05-24T07:52:06.591Z,43.10
2018-05-24T07:54:34.164Z,43.61
2018-05-24T07:57:01.946Z,42.85
2018-05-24T07:59:29.763Z,43.62
2018-05-24T08:01:57.412Z,44.83
2018-05-24T08:04:24.996Z,44.18
2018-05-24T08:06:52.817Z,42.66
2018-05-24T08:09:20.401Z,42.96
2018-05-24T08:11:48.127Z,42.65
2018-05-24T08:14:15.761Z,42.60
2018-05-24T08:16:43.391Z,39.33
2018-05-24T08:19:11.116Z,37.92
2018-05-24T08:21:38.931Z,36.78
2018-05-24T08:24:06.747Z,36.67
2018-05-24T08:26:34.333Z,38.43
2018-05-24T08:29:01.905Z,36.91
2018-05-24T08:31:29.542Z,36.72
2018-05-24T08:33:57.116Z,37.91
2018-05-24T08:36:24.813Z,37.21
2018-05-24T08:38:52.425Z,36.47
2018-05-24T08:41:20.109Z,37.66
2018-05-24T08:43:47.696Z,39.55
2018-05-24T08:46:15.273Z,39.25
2018-05-24T08:48:42.921Z,39.80
2018-05-24T08:51:10.508Z,39.92
2018-05-24T08:53:38.262Z,40.11
2018-05-24T08:56:06.081Z,40.59
2018-05-24T08:58:33.673Z,41.17
2018-05-24T09:01:01.273Z,42.03
2018-05-24T09:03:28.848Z,41.90
2018-05-24T09:05:56.476Z,39.51
2018-05-24T09:08:24.048Z,40.77
2018-05-24T09:10:51.888Z,39.58
2018-05-24T09:13:19.708Z,38.01
2018-05-24T09:15:47.276Z,38.28
2018-05-24T09:18:14.896Z,38.83
2018-05-24T09:20:42.464Z,38.62
2018-05-24T09:23:10.281Z,39.41
2018-05-24T09:25:38.098Z,40.63
2018-05-24T09:28:05.841Z,39.24
2018-05-24T09:30:33.635Z,39.59
2018-05-24T09:33:01.214Z,38.91
2018-05-24T09:35:28.788Z,38.15
2018-05-24T09:37:56.380Z,39.07
2018-05-24T09:40:24.010Z,38.64
2018-05-24T09:42:51.825Z,40.07
2018-05-24T09:45:19.404Z,40.93
2018-05-24T09:47:46.981Z,39.55
2018-05-24T09:50:14.557Z,38.87
2018-05-24T09:52:42.132Z,38.96
2018-05-24T09:55:09.778Z,41.01
2018-05-24T09:57:37.533Z,39.45
2018-05-24T10:00:05.268Z,39.75
2018-05-24T10:02:33.071Z,39.48
2018-05-24T10:05:00.651Z,37.13
2018-05-24T10:07:28.240Z,36.22
2018-05-24T10:09:55.824Z,36.88
2018-05-24T10:12:23.409Z,36.21
2018-05-24T10:14:51.008Z,36.82
2018-05-24T10:17:18.656Z,37.28
2018-05-24T10:19:46.228Z,38.81
2018-05-24T10:22:13.855Z,37.13
2018-05-24T10:24:41.434Z,37.78
2018-05-24T10:27:09.014Z,36.92
2018-05-24T10:29:36.867Z,38.66
2018-05-24T10:32:04.470Z,38.48
2018-05-24T10:34:32.148Z,39.54
2018-05-24T10:37:00.109Z,39.96
2018-05-24T10:39:27.990Z,37.07
2018-05-24T10:41:55.574Z,37.70
2018-05-24T10:44:23.278Z,38.49
2018-05-24T10:46:50.855Z,38.43
2018-05-24T10:49:18.614Z,39.59
2018-05-24T10:51:46.240Z,40.50
2018-05-24T10:54:14.133Z,40.86
2018-05-24T10:56:41.719Z,40.72
2018-05-24T10:59:09.311Z,39.59
2018-05-24T11:01:36.901Z,39.61
2018-05-24T11:04:04.724Z,39.48
2018-05-24T11:06:32.542Z,39.24
2018-05-24T11:09:00.172Z,36.66
2018-05-24T11:11:27.754Z,36.77
2018-05-24T11:13:55.332Z,35.77
2018-05-24T11:16:22.965Z,35.02
2018-05-24T11:18:50.837Z,36.71
2018-05-24T11:21:18.652Z,35.67
2018-05-24T11:23:46.234Z,35.47
2018-05-24T11:26:13.877Z,35.71
2018-05-24T11:28:41.560Z,36.98
2018-05-24T11:31:09.056Z,38.75
2018-05-24T11:33:36.640Z,36.87
2018-05-24T11:36:04.290Z,38.79
2018-05-24T11:38:31.841Z,38.26
2018-05-24T11:40:59.427Z,38.75
2018-05-24T11:43:27.108Z,36.69
2018-05-24T11:45:54.671Z,35.90
2018-05-24T11:48:22.244Z,37.42
2018-05-24T11:50:49.828Z,35.24
2018-05-24T11:53:17.411Z,36.17
2018-05-24T11:55:45.016Z,36.17
2018-05-24T11:58:12.600Z,37.64
2018-05-24T12:00:40.234Z,34.98
2018-05-24T12:03:07.808Z,34.11
2018-05-24T12:05:35.381Z,33.06
2018-05-24T12:08:02.989Z,33.32
2018-05-24T12:10:30.565Z,33.59
2018-05-24T12:12:58.152Z,33.96
2018-05-24T12:15:25.705Z,33.45
2018-05-24T12:17:53.437Z,33.42
2018-05-24T12:20:21.022Z,34.11
2018-05-24T12:22:48.632Z,34.26
2018-05-24T12:25:16.229Z,33.53
2018-05-24T12:27:43.807Z,32.98
2018-05-24T12:30:11.399Z,32.81
2018-05-24T12:32:38.973Z,33.52
2018-05-24T12:35:06.613Z,33.30
2018-05-24T12:37:34.167Z,33.81
2018-05-24T12:40:01.746Z,33.65
2018-05-24T12:42:29.333Z,33.49
2018-05-24T12:44:56.903Z,33.35
2018-05-24T12:47:24.470Z,39.29
2018-05-24T12:49:52.057Z,42.01
2018-05-24T12:52:19.694Z,42.66
2018-05-24T12:54:47.268Z,42.58
2018-05-24T12:57:14.844Z,44.58
2018-05-24T12:59:42.436Z,45.95
2018-05-24T13:02:10.016Z,46.63
2018-05-24T13:04:37.608Z,45.60
2018-05-24T13:07:05.219Z,43.28
2018-05-24T13:09:32.850Z,43.40
2018-05-24T13:12:00.428Z,45.87
2018-05-24T13:14:28.009Z,45.35
2018-05-24T13:16:55.639Z,42.87
2018-05-24T13:19:23.201Z,43.53
2018-05-24T13:21:50.807Z,42.75
2018-05-24T13:24:18.381Z,40.67
2018-05-24T13:26:46.025Z,40.71
2018-05-24T13:29:13.630Z,39.54
2018-05-24T13:31:41.205Z,38.53
2018-05-24T13:34:08.789Z,39.38
2018-05-24T13:36:36.368Z,38.13
2018-05-24T13:39:04.120Z,38.27
2018-05-24T13:41:31.692Z,36.97
2018-05-24T13:43:59.281Z,38.87
2018-05-24T13:46:26.872Z,38.14
2018-05-24T13:48:54.500Z,38.71
2018-05-24T13:51:22.136Z,38.99
2018-05-24T13:53:49.754Z,37.85
2018-05-24T13:56:17.413Z,38.12
2018-05-24T13:58:44.997Z,39.19
2018-05-24T14:01:12.576Z,38.70
2018-05-24T14:03:40.312Z,38.97
2018-05-24T14:06:07.888Z,39.37
2018-05-24T14:08:35.478Z,39.68
2018-05-24T14:11:03.110Z,40.29
2018-05-24T14:13:30.695Z,40.37
2018-05-24T14:15:58.328Z,39.86
2018-05-24T14:18:25.906Z,40.36
2018-05-24T14:20:53.496Z,39.94
2018-05-24T14:23:21.081Z,40.17
2018-05-24T14:25:48.652Z,40.18
2018-05-24T14:28:16.281Z,40.97
2018-05-24T14:30:43.863Z,41.38
2018-05-24T14:33:11.448Z,41.37
2018-05-24T14:35:39.029Z,41.08
2018-05-24T14:38:06.649Z,40.28
2018-05-24T14:40:34.279Z,41.69
2018-05-24T14:43:01.900Z,42.26
2018-05-24T14:45:29.488Z,42.05
2018-05-24T14:47:57.074Z,42.89
2018-05-24T14:50:24.653Z,43.51
2018-05-24T14:52:52.297Z,43.77
2018-05-24T14:55:19.871Z,42.41
2018-05-24T14:57:47.448Z,41.13
2018-05-24T15:00:15.037Z,41.73
2018-05-24T15:02:42.617Z,41.26
2018-05-24T15:05:10.252Z,41.88
2018-05-24T15:07:37.823Z,40.61
2018-05-24T15:10:05.441Z,41.44
2018-05-24T15:12:33.024Z,41.05
2018-05-24T15:15:00.605Z,41.96
2018-05-24T15:17:28.191Z,43.29
2018-05-24T15:19:55.780Z,43.94
2018-05-24T15:22:23.404Z,44.10
2018-05-24T15:24:50.988Z,44.01
2018-05-24T15:27:18.568Z,44.07
2018-05-24T15:29:46.157Z,43.95
2018-05-24T15:32:13.732Z,44.26
2018-05-24T15:34:41.385Z,44.36
2018-05-24T15:37:08.966Z,44.55
2018-05-24T15:39:36.553Z,44.70
2018-05-24T15:42:04.147Z,43.76
2018-05-24T15:44:31.776Z,45.16
2018-05-24T15:46:59.430Z,46.09
2018-05-24T15:49:27.027Z,46.80
2018-05-24T15:51:54.605Z,46.10
2018-05-24T15:54:22.193Z,46.57
2018-05-24T15:56:49.769Z,45.60
2018-05-24T15:59:17.408Z,44.69
2018-05-24T16:01:44.984Z,44.82
2018-05-24T16:04:12.559Z,43.96
2018-05-24T16:06:40.173Z,43.38
2018-05-24T16:09:07.752Z,44.03
2018-05-24T16:11:35.385Z,43.09
2018-05-24T16:14:03.056Z,42.85
2018-05-24T16:16:30.628Z,41.52
2018-05-24T16:18:58.215Z,42.05
2018-05-24T16:21:25.787Z,42.74
2018-05-24T16:23:53.438Z,43.22
2018-05-24T16:26:21.016Z,43.32
2018-05-24T16:28:48.592Z,43.28
2018-05-24T16:31:16.199Z,44.50
2018-05-24T16:33:43.841Z,45.28
2018-05-24T16:36:11.484Z,45.23
2018-05-24T16:38:39.064Z,45.54
2018-05-24T16:41:06.669Z,45.88
2018-05-24T16:43:34.261Z,46.83
2018-05-24T16:46:01.893Z,46.96
2018-05-24T16:48:29.834Z,47.17
2018-05-24T16:50:57.420Z,48.12
2018-05-24T16:53:24.997Z,49.02
2018-05-24T16:55:52.593Z,50.08
2018-05-24T16:58:20.310Z,51.31
2018-05-24T17:00:48.125Z,52.63
2018-05-24T17:03:15.944Z,53.12
2018-05-24T17:05:43.538Z,53.18
2018-05-24T17:08:11.140Z,53.30
2018-05-24T17:10:38.729Z,53.67
2018-05-24T17:13:06.578Z,54.39
2018-05-24T17:15:34.219Z,54.24
2018-05-24T17:18:02.055Z,54.21
2018-05-24T17:20:29.705Z,52.96
2018-05-24T17:22:57.280Z,53.27
2018-05-24T17:25:24.986Z,54.55
2018-05-24T17:27:52.570Z,54.75
2018-05-24T17:30:20.319Z,54.38
2018-05-24T17:32:47.908Z,53.44
2018-05-24T17:35:15.684Z,53.79
2018-05-24T17:37:43.272Z,53.84
2018-05-24T17:40:10.854Z,54.15
2018-05-24T17:42:38.486Z,54.47
2018-05-24T17:45:06.099Z,54.71
2018-05-24T17:47:33.770Z,54.87
2018-05-24T17:50:01.363Z,56.34
2018-05-24T17:52:28.945Z,56.56
2018-05-24T17:54:56.722Z,57.38
2018-05-24T17:57:24.541Z,56.67
2018-05-24T17:59:52.173Z,57.03
2018-05-24T18:02:19.757Z,57.00
2018-05-24T18:04:47.339Z,57.20
2018-05-24T18:07:14.923Z,57.84
2018-05-24T18:09:42.499Z,58.57
2018-05-24T18:12:10.350Z,58.73
2018-05-24T18:14:38.169Z,59.07
2018-05-24T18:17:05.987Z,58.46
2018-05-24T18:19:33.564Z,58.22
2018-05-24T18:22:01.328Z,58.72
2018-05-24T18:24:28.902Z,58.86
2018-05-24T18:26:56.483Z,59.01
2018-05-24T18:29:24.078Z,59.27
2018-05-24T18:31:51.896Z,58.89
2018-05-24T18:34:19.536Z,58.73
2018-05-24T18:36:47.301Z,58.78
2018-05-24T18:39:14.884Z,58.97
2018-05-24T18:41:42.477Z,58.96
2018-05-24T18:44:10.288Z,59.14
2018-05-24T18:46:37.879Z,59.62
2018-05-24T18:49:05.463Z,61.07
2018-05-24T18:51:33.132Z,63.07
2018-05-24T18:54:00.959Z,63.77
2018-05-24T18:56:28.551Z,64.20
2018-05-24T18:58:56.140Z,64.09
2018-05-24T19:01:23.718Z,64.61
2018-05-24T19:03:51.531Z,64.71
2018-05-24T19:06:19.351Z,64.96
2018-05-24T19:08:46.944Z,65.16
2018-05-24T19:11:14.664Z,65.95
2018-05-24T19:13:42.505Z,66.46
2018-05-24T19:16:10.325Z,66.83
2018-05-24T19:18:38.046Z,67.16
2018-05-24T19:21:06.569Z,67.12
2018-05-24T19:23:34.148Z,67.61
2018-05-24T19:26:03.006Z,68.14
2018-05-24T19:28:30.570Z,68.52
2018-05-24T19:30:58.418Z,68.86
2018-05-24T19:33:26.414Z,68.88
2018-05-24T19:35:54.057Z,69.49
2018-05-24T19:38:21.699Z,69.99
2018-05-24T19:40:49.560Z,70.57
2018-05-24T19:43:17.160Z,71.04
2018-05-24T19:45:44.808Z,70.95
2018-05-24T19:48:12.494Z,71.15
2018-05-24T19:50:40.078Z,71.44
2018-05-24T19:53:07.786Z,71.66
2018-05-24T19:55:35.377Z,71.59
2018-05-24T19:58:02.961Z,72.22
2018-05-24T20:00:30.563Z,71.98
2018-05-24T20:02:58.277Z,71.99
2018-05-24T20:05:25.928Z,72.14
2018-05-24T20:07:53.517Z,72.53
2018-05-24T20:10:21.170Z,72.84
2018-05-24T20:12:48.765Z,73.07
2018-05-24T20:15:16.364Z,73.14
2018-05-24T20:17:43.959Z,73.70
2018-05-24T20:20:11.589Z,73.54
2018-05-24T20:22:39.347Z,73.59
2018-05-24T20:25:06.929Z,74.12
2018-05-24T20:27:34.500Z,74.27
2018-05-24T20:30:02.135Z,74.25
2018-05-24T20:32:29.975Z,74.62
2018-05-24T20:34:57.565Z,74.85
2018-05-24T20:37:25.157Z,74.60
2018-05-24T20:39:52.809Z,74.70
2018-05-24T20:42:20.397Z,75.00
2018-05-24T20:44:48.034Z,75.07
2018-05-24T20:47:15.613Z,74.65
2018-05-24T20:49:43.192Z,75.09
2018-05-24T20:52:10.784Z,75.23
2018-05-24T20:54:38.430Z,75.88
2018-05-24T20:57:06.151Z,76.35
2018-05-24T20:59:33.736Z,76.65
2018-05-24T21:02:01.320Z,76.72
2018-05-24T21:04:28.912Z,77.00
2018-05-24T21:06:56.556Z,76.64
2018-05-24T21:09:24.205Z,76.77
2018-05-24T21:11:51.861Z,76.69
2018-05-24T21:14:19.559Z,77.01
2018-05-24T21:16:47.141Z,77.48
2018-05-24T21:19:14.729Z,77.84
2018-05-24T21:21:42.330Z,78.37
2018-05-24T21:24:09.924Z,78.44
2018-05-24T21:26:37.560Z,78.82
2018-05-24T21:29:05.385Z,78.86
2018-05-24T21:31:32.972Z,78.96
2018-05-24T21:34:00.687Z,79.17
2018-05-24T21:36:28.260Z,79.29
2018-05-24T21:38:55.909Z,79.25
2018-05-24T21:41:23.675Z,78.78
2018-05-24T21:43:51.261Z,78.86
2018-05-24T21:46:19.015Z,79.21
2018-05-24T21:48:46.596Z,79.23
2018-05-24T21:51:14.216Z,80.31
2018-05-24T21:53:42.009Z,79.84
2018-05-24T21:56:09.660Z,79.34
2018-05-24T21:58:37.244Z,79.10
2018-05-24T22:01:04.921Z,79.28
2018-05-24T22:03:32.537Z,79.10
2018-05-24T22:06:00.121Z,79.13
2018-05-24T22:08:27.715Z,79.63
2018-05-24T22:10:55.515Z,79.83
2018-05-24T22:13:23.202Z,80.01
2018-05-24T22:15:50.781Z,80.08
2018-05-24T22:18:18.434Z,79.71
2018-05-24T22:20:46.032Z,79.55
2018-05-24T22:23:13.676Z,79.83
2018-05-24T22:25:41.296Z,80.20
2018-05-24T22:28:08.890Z,80.35
2018-05-24T22:30:36.525Z,80.47
2018-05-24T22:33:04.355Z,80.49
2018-05-24T22:35:31.940Z,80.73
2018-05-24T22:37:59.524Z,80.86
2018-05-24T22:40:27.310Z,80.67
2018-05-24T22:42:54.900Z,80.72
2018-05-24T22:45:22.488Z,81.08
2018-05-24T22:47:50.141Z,81.37
2018-05-24T22:50:17.720Z,81.62
2018-05-24T22:52:45.309Z,81.99
2018-05-24T22:55:12.911Z,82.18
2018-05-24T22:57:40.474Z,82.36
2018-05-24T23:00:08.251Z,82.08
2018-05-24T23:02:36.072Z,81.49
2018-05-24T23:05:03.828Z,81.68
2018-05-24T23:07:31.380Z,81.92
2018-05-24T23:09:58.964Z,82.19
2018-05-24T23:12:26.625Z,82.47
2018-05-24T23:14:54.203Z,82.67
2018-05-24T23:17:21.798Z,82.92
2018-05-24T23:19:49.598Z,82.97
2018-05-24T23:22:29.049Z,83.14
2018-05-24T23:24:56.642Z,83.49
2018-05-24T23:27:24.219Z,84.30
2018-05-24T23:29:51.814Z,84.99
2018-05-24T23:32:19.590Z,83.61
2018-05-24T23:34:47.257Z,82.92
2018-05-24T23:37:14.842Z,83.24
2018-05-24T23:39:42.476Z,83.21
2018-05-24T23:42:10.282Z,83.33
2018-05-24T23:44:38.021Z,83.46
2018-05-24T23:47:05.840Z,83.76
2018-05-24T23:49:33.432Z,83.80
2018-05-24T23:52:01.036Z,83.65
2018-05-24T23:54:28.796Z,83.72
2018-05-24T23:56:56.432Z,84.07
2018-05-24T23:59:24.200Z,84.56
